createdAt,value
2022-09-04T00:00:19.456Z,17.02
2022-09-04T00:02:55.519Z,19.60
2022-09-04T00:05:33.785Z,16.45
2022-09-04T00:08:38.226Z,20.38
2022-09-04T00:11:08.761Z,19.15
2022-09-04T00:13:39.922Z,16.75
2022-09-04T00:16:17.805Z,16.98
2022-09-04T00:19:06.150Z,18.30
2022-09-04T00:22:00.770Z,16.80
2022-09-04T00:24:33.229Z,15.82
2022-09-04T00:27:26.140Z,16.17
2022-09-04T00:30:11.652Z,19.02
2022-09-04T00:32:45.751Z,16.77
2022-09-04T00:35:39.419Z,19.80
2022-09-04T00:38:19.469Z,21.27
2022-09-04T00:40:59.693Z,19.25
2022-09-04T00:44:01.765Z,20.83
2022-09-04T00:46:52.048Z,20.45
2022-09-04T00:49:42.482Z,19.85
2022-09-04T00:52:15.422Z,24.00
2022-09-04T00:55:01.140Z,20.85
2022-09-04T00:57:43.122Z,20.35
2022-09-04T01:00:15.930Z,22.65
2022-09-04T01:02:48.610Z,25.40
2022-09-04T01:05:33.439Z,26.08
2022-09-04T01:08:07.712Z,28.73
2022-09-04T01:10:53.329Z,24.70
2022-09-04T01:13:36.313Z,22.48
2022-09-04T01:16:20.203Z,27.38
2022-09-04T01:19:16.150Z,28.25
2022-09-04T01:22:17.246Z,21.92
2022-09-04T01:25:21.808Z,26.33
2022-09-04T01:28:06.279Z,22.77
2022-09-04T01:30:56.502Z,21.65
2022-09-04T01:33:32.254Z,20.35
2022-09-04T01:36:19.987Z,22.35
2022-09-04T01:38:55.766Z,19.90
2022-09-04T01:41:45.491Z,23.63
2022-09-04T01:44:12.618Z,22.63
2022-09-04T01:46:41.761Z,23.23
2022-09-04T01:49:21.142Z,27.33
2022-09-04T01:52:36.758Z,25.75
2022-09-04T01:55:09.269Z,26.65
2022-09-04T01:58:00.544Z,27.30
2022-09-04T02:00:28.235Z,27.92
2022-09-04T02:03:19.398Z,26.73
2022-09-04T02:06:24.401Z,29.52
2022-09-04T02:09:15.506Z,30.48
2022-09-04T02:11:48.771Z,31.05
2022-09-04T02:14:49.091Z,30.48
2022-09-04T02:17:32.673Z,35.75
2022-09-04T02:20:12.171Z,33.65
2022-09-04T02:23:07.138Z,31.02
2022-09-04T02:25:39.122Z,29.52
2022-09-04T02:28:23.833Z,33.20
2022-09-04T02:31:11.003Z,37.60
2022-09-04T02:34:09.871Z,40.58
2022-09-04T02:36:46.172Z,36.10
2022-09-04T02:39:23.304Z,41.72
2022-09-04T02:42:04.408Z,39.17
2022-09-04T02:44:37.054Z,37.70
2022-09-04T02:47:41.579Z,38.65
2022-09-04T02:50:26.383Z,37.35
2022-09-04T02:52:53.270Z,35.75
2022-09-04T02:55:50.563Z,38.83
2022-09-04T02:58:28.071Z,38.35
2022-09-04T03:01:03.093Z,44.28
2022-09-04T03:03:35.870Z,39.40
2022-09-04T03:06:16.051Z,41.97
2022-09-04T03:08:49.815Z,42.70
2022-09-04T03:11:34.390Z,43.30
2022-09-04T03:14:16.493Z,43.65
2022-09-04T03:17:16.355Z,47.95
2022-09-04T03:19:50.686Z,42.10
2022-09-04T03:22:33.637Z,39.92
2022-09-04T03:25:21.490Z,46.50
2022-09-04T03:27:48.333Z,50.15
2022-09-04T03:30:15.347Z,44.55
2022-09-04T03:32:57.310Z,44.60
2022-09-04T03:35:36.066Z,43.78
2022-09-04T03:38:17.729Z,43.53
2022-09-04T03:41:13.413Z,52.33
2022-09-04T03:43:55.973Z,44.85
2022-09-04T03:46:26.215Z,46.03
2022-09-04T03:49:11.121Z,49.08
2022-09-04T03:51:55.731Z,43.90
2022-09-04T03:55:01.117Z,53.22
2022-09-04T03:57:51.957Z,56.67
2022-09-04T04:00:20.484Z,50.08
2022-09-04T04:03:05.961Z,58.90
2022-09-04T04:05:48.703Z,54.50
2022-09-04T04:08:41.675Z,47.47
2022-09-04T04:11:30.233Z,56.65
2022-09-04T04:14:15.486Z,51.55
2022-09-04T04:16:57.439Z,55.63
2022-09-04T04:19:32.057Z,49.72
2022-09-04T04:22:10.846Z,53.03
2022-09-04T04:24:48.190Z,48.13
2022-09-04T04:27:27.112Z,49.97
2022-09-04T04:30:03.518Z,51.63
2022-09-04T04:32:41.674Z,55.25
2022-09-04T04:35:19.862Z,52.10
2022-09-04T04:38:10.082Z,60.45
2022-09-04T04:40:51.862Z,54.05
2022-09-04T04:43:26.803Z,57.47
2022-09-04T04:46:43.730Z,47.78
2022-09-04T04:49:41.430Z,56.00
2022-09-04T04:52:23.372Z,55.50
2022-09-04T04:55:05.392Z,53.10
2022-09-04T04:57:41.364Z,51.63
2022-09-04T05:00:10.802Z,53.78
2022-09-04T05:03:01.378Z,55.63
2022-09-04T05:05:43.728Z,57.78
2022-09-04T05:08:14.922Z,59.72
2022-09-04T05:10:47.558Z,59.25
2022-09-04T05:13:32.647Z,59.83
2022-09-04T05:16:19.227Z,56.53
2022-09-04T05:19:10.993Z,51.53
2022-09-04T05:21:39.994Z,56.80
2022-09-04T05:24:28.575Z,50.10
2022-09-04T05:26:58.493Z,55.17
2022-09-04T05:29:43.546Z,52.90
2022-09-04T05:32:39.828Z,49.00
2022-09-04T05:35:13.703Z,50.13
2022-09-04T05:37:59.536Z,46.67
2022-09-04T05:40:31.019Z,55.42
2022-09-04T05:43:29.182Z,56.20
2022-09-04T05:46:05.574Z,54.45
2022-09-04T05:48:45.007Z,54.08
2022-09-04T05:51:39.695Z,51.05
2022-09-04T05:54:25.667Z,52.75
2022-09-04T05:57:30.114Z,55.97
2022-09-04T06:00:23.090Z,60.35
2022-09-04T06:02:55.541Z,59.30
2022-09-04T06:05:24.497Z,61.85
2022-09-04T06:08:12.748Z,62.50
2022-09-04T06:11:03.936Z,62.55
2022-09-04T06:13:55.426Z,58.65
2022-09-04T06:16:31.015Z,65.65
2022-09-04T06:19:25.181Z,60.75
2022-09-04T06:22:14.474Z,56.60
2022-09-04T06:25:09.473Z,53.95
2022-09-04T06:28:01.850Z,57.55
2022-09-04T06:30:55.795Z,61.58
2022-09-04T06:33:32.725Z,49.90
2022-09-04T06:36:30.932Z,56.15
2022-09-04T06:39:42.638Z,57.60
2022-09-04T06:42:35.697Z,65.50
2022-09-04T06:45:19.042Z,61.35
2022-09-04T06:48:10.707Z,55.60
2022-09-04T06:50:43.861Z,49.78
2022-09-04T06:53:39.020Z,53.00
2022-09-04T06:56:14.465Z,56.80
2022-09-04T06:59:02.240Z,50.35
2022-09-04T07:01:46.853Z,57.65
2022-09-04T07:04:27.014Z,49.13
2022-09-04T07:07:02.242Z,50.17
2022-09-04T07:09:35.322Z,57.47
2022-09-04T07:12:14.719Z,51.95
2022-09-04T07:15:12.493Z,56.85
2022-09-04T07:18:08.215Z,49.97
2022-09-04T07:20:54.340Z,52.72
2022-09-04T07:23:27.665Z,54.45
2022-09-04T07:26:32.267Z,52.17
2022-09-04T07:29:29.690Z,42.97
2022-09-04T07:32:11.674Z,45.35
2022-09-04T07:34:55.621Z,41.03
2022-09-04T07:37:58.438Z,39.67
2022-09-04T07:40:27.954Z,35.78
2022-09-04T07:43:00.246Z,38.88
2022-09-04T07:45:47.475Z,38.47
2022-09-04T07:48:24.834Z,40.42
2022-09-04T07:51:04.806Z,41.85
2022-09-04T07:53:40.607Z,40.15
2022-09-04T07:56:31.120Z,38.47
2022-09-04T07:59:13.517Z,40.05
2022-09-04T08:01:47.104Z,44.53
2022-09-04T08:04:24.276Z,40.38
2022-09-04T08:07:10.810Z,39.70
2022-09-04T08:10:03.427Z,36.90
2022-09-04T08:13:03.197Z,35.03
2022-09-04T08:15:44.000Z,34.83
2022-09-04T08:18:35.295Z,38.95
2022-09-04T08:21:33.358Z,35.38
2022-09-04T08:24:00.255Z,34.90
2022-09-04T08:26:48.215Z,33.45
2022-09-04T08:29:18.191Z,36.70
2022-09-04T08:32:18.925Z,30.63
2022-09-04T08:35:21.135Z,36.35
2022-09-04T08:38:12.634Z,38.13
2022-09-04T08:41:08.958Z,40.88
2022-09-04T08:44:09.630Z,38.08
2022-09-04T08:47:01.703Z,33.58
2022-09-04T08:50:06.090Z,40.28
2022-09-04T08:52:53.703Z,34.17
2022-09-04T08:55:28.147Z,30.40
2022-09-04T08:58:21.932Z,35.97
2022-09-04T09:01:26.457Z,30.55
2022-09-04T09:04:14.382Z,23.45
2022-09-04T09:07:02.202Z,25.08
2022-09-04T09:09:50.914Z,26.15
2022-09-04T09:12:56.082Z,21.20
2022-09-04T09:15:53.215Z,24.10
2022-09-04T09:18:37.065Z,17.05
2022-09-04T09:21:40.262Z,16.42
2022-09-04T09:24:09.918Z,14.43
2022-09-04T09:27:08.135Z,16.67
2022-09-04T09:30:14.994Z,14.45
2022-09-04T09:32:44.409Z,14.50
2022-09-04T09:35:33.206Z,18.52
2022-09-04T09:38:20.037Z,14.18
2022-09-04T09:41:08.560Z,16.40
2022-09-04T09:43:51.521Z,19.38
2022-09-04T09:46:38.570Z,19.65
2022-09-04T09:49:05.396Z,14.80
2022-09-04T09:51:57.094Z,14.90
2022-09-04T09:54:29.893Z,17.35
2022-09-04T09:57:21.939Z,14.07
2022-09-04T10:00:17.521Z,21.77
2022-09-04T10:02:55.788Z,15.27
2022-09-04T10:05:35.891Z,16.70
2022-09-04T10:08:36.045Z,14.98
2022-09-04T10:11:15.214Z,12.43
2022-09-04T10:14:28.367Z,14.00
2022-09-04T10:16:57.170Z,12.20
2022-09-04T10:20:01.429Z,13.23
2022-09-04T10:22:44.015Z,11.13
2022-09-04T10:25:31.418Z,11.98
2022-09-04T10:28:07.242Z,12.00
2022-09-04T10:30:55.441Z,10.55
2022-09-04T10:33:43.193Z,8.18
2022-09-04T10:36:30.969Z,9.18
2022-09-04T10:39:51.127Z,8.00
2022-09-04T10:42:17.997Z,10.45
2022-09-04T10:44:54.620Z,9.57
2022-09-04T10:47:45.100Z,10.57
2022-09-04T10:50:13.552Z,10.82
2022-09-04T10:52:55.579Z,12.75
2022-09-04T10:55:43.890Z,8.73
2022-09-04T10:58:30.065Z,10.70
2022-09-04T11:01:21.371Z,10.77
2022-09-04T11:04:03.823Z,13.27
2022-09-04T11:06:52.883Z,11.43
2022-09-04T11:09:44.810Z,14.35
2022-09-04T11:12:56.050Z,11.38
2022-09-04T11:15:34.931Z,10.27
2022-09-04T11:18:04.541Z,9.98
2022-09-04T11:20:50.150Z,10.75
2022-09-04T11:23:50.766Z,6.53
2022-09-04T11:26:50.959Z,9.57
2022-09-04T11:29:55.938Z,8.23
2022-09-04T11:32:32.133Z,8.73
2022-09-04T11:35:36.483Z,7.28
2022-09-04T11:38:19.461Z,8.15
2022-09-04T11:41:09.837Z,7.32
2022-09-04T11:44:18.383Z,8.93
2022-09-04T11:46:47.171Z,7.72
2022-09-04T11:49:48.120Z,4.05
2022-09-04T11:52:28.273Z,4.13
2022-09-04T11:55:18.365Z,5.20
2022-09-04T11:58:03.307Z,5.82
2022-09-04T12:00:43.170Z,5.07
2022-09-04T12:03:33.490Z,5.35
2022-09-04T12:06:10.770Z,8.02
2022-09-04T12:09:06.870Z,5.10
2022-09-04T12:11:52.657Z,5.95
2022-09-04T12:14:50.123Z,6.25
2022-09-04T12:17:33.606Z,8.65
2022-09-04T12:20:38.139Z,3.83
2022-09-04T12:23:12.831Z,6.20
2022-09-04T12:26:00.344Z,3.88
2022-09-04T12:28:55.755Z,4.05
2022-09-04T12:31:38.274Z,3.88
2022-09-04T12:34:20.372Z,4.10
2022-09-04T12:36:59.486Z,6.90
2022-09-04T12:39:56.201Z,3.45
2022-09-04T12:42:30.685Z,2.90
2022-09-04T12:45:15.734Z,3.25
2022-09-04T12:48:03.927Z,8.23
2022-09-04T12:50:55.527Z,4.68
2022-09-04T12:53:49.251Z,5.03
2022-09-04T12:56:42.157Z,2.72
2022-09-04T12:59:15.968Z,5.82
2022-09-04T13:02:04.532Z,6.13
2022-09-04T13:04:40.884Z,5.85
2022-09-04T13:07:24.593Z,5.60
2022-09-04T13:10:16.901Z,8.00
2022-09-04T13:13:14.714Z,3.90
2022-09-04T13:16:00.496Z,4.18
2022-09-04T13:18:39.180Z,6.90
2022-09-04T13:21:31.082Z,4.57
2022-09-04T13:24:03.967Z,6.07
2022-09-04T13:26:42.682Z,4.95
2022-09-04T13:29:16.231Z,7.32
2022-09-04T13:32:21.074Z,4.18
2022-09-04T13:35:25.195Z,7.80
2022-09-04T13:38:15.254Z,5.95
2022-09-04T13:41:06.058Z,7.93
2022-09-04T13:44:14.270Z,6.55
2022-09-04T13:46:47.115Z,4.85
2022-09-04T13:49:19.904Z,4.80
2022-09-04T13:52:11.034Z,3.53
2022-09-04T13:54:44.060Z,6.25
2022-09-04T13:57:18.166Z,7.70
2022-09-04T13:59:48.999Z,13.77
2022-09-04T14:02:20.135Z,16.13
2022-09-04T14:04:48.878Z,14.25
2022-09-04T14:07:36.172Z,19.13
2022-09-04T14:10:14.700Z,22.10
2022-09-04T14:12:57.875Z,32.63
2022-09-04T14:15:46.150Z,29.65
2022-09-04T14:18:37.690Z,35.72
2022-09-04T14:21:18.395Z,44.10
2022-09-04T14:24:22.793Z,43.60
2022-09-04T14:27:15.770Z,38.80
2022-09-04T14:30:00.918Z,46.20
2022-09-04T14:32:52.230Z,49.22
2022-09-04T14:35:35.849Z,49.83
2022-09-04T14:38:27.974Z,52.28
2022-09-04T14:41:00.711Z,53.53
2022-09-04T14:43:29.991Z,52.95
2022-09-04T14:46:15.183Z,49.20
2022-09-04T14:48:44.599Z,50.17
2022-09-04T14:51:16.122Z,44.05
2022-09-04T14:53:48.299Z,50.00
2022-09-04T14:56:23.308Z,47.70
2022-09-04T14:58:56.350Z,45.10
2022-09-04T15:01:24.665Z,47.28
2022-09-04T15:04:10.169Z,43.97
2022-09-04T15:07:10.287Z,51.25
2022-09-04T15:09:42.226Z,45.72
2022-09-04T15:12:26.593Z,45.38
2022-09-04T15:15:29.316Z,43.67
2022-09-04T15:18:10.898Z,45.90
2022-09-04T15:20:38.698Z,49.80
2022-09-04T15:23:17.650Z,46.35
2022-09-04T15:26:00.525Z,48.33
2022-09-04T15:28:42.078Z,45.67
2022-09-04T15:31:20.984Z,46.83
2022-09-04T15:33:48.269Z,51.80
2022-09-04T15:36:21.220Z,51.03
2022-09-04T15:38:51.090Z,48.90
2022-09-04T15:41:34.223Z,47.30
2022-09-04T15:44:38.306Z,50.40
2022-09-04T15:47:36.656Z,50.33
2022-09-04T15:50:16.598Z,49.75
2022-09-04T15:53:09.174Z,48.42
2022-09-04T15:55:40.347Z,50.58
2022-09-04T15:58:19.714Z,44.50
2022-09-04T16:00:56.481Z,47.28
2022-09-04T16:03:29.303Z,54.22
2022-09-04T16:06:16.072Z,51.60
2022-09-04T16:08:47.989Z,51.72
2022-09-04T16:11:28.571Z,49.25
2022-09-04T16:14:03.165Z,43.05
2022-09-04T16:16:49.453Z,45.13
2022-09-04T16:19:34.554Z,41.85
2022-09-04T16:22:07.536Z,52.28
2022-09-04T16:25:10.251Z,41.50
2022-09-04T16:27:49.449Z,43.38
2022-09-04T16:30:54.565Z,38.00
2022-09-04T16:33:28.037Z,44.63
2022-09-04T16:36:01.582Z,41.45
2022-09-04T16:38:52.494Z,41.83
2022-09-04T16:41:25.669Z,49.45
2022-09-04T16:44:32.682Z,48.20
2022-09-04T16:47:03.103Z,35.22
2022-09-04T16:49:31.335Z,43.55
2022-09-04T16:52:22.496Z,40.15
2022-09-04T16:55:07.781Z,42.65
2022-09-04T16:57:56.033Z,40.78
2022-09-04T17:00:24.135Z,43.60
2022-09-04T17:02:57.556Z,48.00
2022-09-04T17:05:55.951Z,46.38
2022-09-04T17:08:44.538Z,43.78
2022-09-04T17:11:14.186Z,46.65
2022-09-04T17:14:05.291Z,42.15
2022-09-04T17:17:17.021Z,50.03
2022-09-04T17:20:01.272Z,42.35
2022-09-04T17:26:41.172Z,43.78
2022-09-04T17:29:08.336Z,46.88
2022-09-04T17:29:14.872Z,40.33
2022-09-04T17:31:28.541Z,45.50
2022-09-04T17:38:53.724Z,48.58
2022-09-04T17:40:37.987Z,43.60
2022-09-04T17:40:49.397Z,41.25
2022-09-04T17:43:14.833Z,38.42
2022-09-04T17:46:06.739Z,39.00
2022-09-04T17:48:38.459Z,40.20
2022-09-04T17:51:06.086Z,38.85
2022-09-04T17:53:34.988Z,35.72
2022-09-04T17:56:08.458Z,28.85
2022-09-04T17:58:40.366Z,27.35
2022-09-04T18:01:14.141Z,28.25
2022-09-04T18:04:21.688Z,21.63
2022-09-04T18:06:57.227Z,21.98
2022-09-04T18:09:46.173Z,21.20
2022-09-04T18:12:26.685Z,20.33
2022-09-04T18:15:25.227Z,21.73
2022-09-04T18:18:14.086Z,23.33
2022-09-04T18:21:07.008Z,21.10
2022-09-04T18:23:51.574Z,21.13
2022-09-04T18:26:22.379Z,25.55
2022-09-04T18:30:11.863Z,28.88
2022-09-04T18:37:09.478Z,28.45
2022-09-04T18:37:18.216Z,29.65
2022-09-04T18:37:55.043Z,29.15
2022-09-04T18:46:39.979Z,30.40
2022-09-04T18:50:33.813Z,28.98
2022-09-04T18:50:39.465Z,30.35
2022-09-04T18:50:44.415Z,30.42
2022-09-04T18:52:14.005Z,30.33
2022-09-04T18:54:53.831Z,33.35
2022-09-04T18:57:56.447Z,32.88
2022-09-04T19:00:35.103Z,33.28
2022-09-04T19:03:13.166Z,35.00
2022-09-04T19:05:44.675Z,34.03
2022-09-04T19:08:32.317Z,35.67
2022-09-04T19:11:17.458Z,31.92
2022-09-04T19:13:55.293Z,34.58
2022-09-04T19:16:49.108Z,30.58
2022-09-04T19:19:32.884Z,32.60
2022-09-04T19:22:17.924Z,31.25
2022-09-04T19:24:51.842Z,30.58
2022-09-04T19:27:28.581Z,30.55
2022-09-04T19:30:19.718Z,30.50
2022-09-04T19:33:00.418Z,36.00
2022-09-04T19:35:38.302Z,37.53
2022-09-04T19:42:07.475Z,36.88
2022-09-04T19:46:08.223Z,39.75
2022-09-04T19:46:12.706Z,45.83
2022-09-04T19:47:29.163Z,37.95
2022-09-04T19:53:18.302Z,38.35
2022-09-04T19:53:31.295Z,32.15
2022-09-04T19:55:47.611Z,28.13
2022-09-04T19:58:21.593Z,31.48
2022-09-04T20:00:59.475Z,28.95
2022-09-04T20:04:06.053Z,27.73
2022-09-04T20:06:36.510Z,29.00
2022-09-04T20:09:14.414Z,30.50
2022-09-04T20:11:46.450Z,29.27
2022-09-04T20:14:22.333Z,27.85
2022-09-04T20:17:11.742Z,28.08
2022-09-04T20:19:44.995Z,26.02
2022-09-04T20:22:26.953Z,29.08
2022-09-04T20:25:06.776Z,26.80
2022-09-04T20:27:46.058Z,24.90
2022-09-04T20:30:24.858Z,22.88
2022-09-04T20:33:01.802Z,21.30
2022-09-04T20:35:41.035Z,23.30
2022-09-04T20:38:32.600Z,27.08
2022-09-04T20:41:15.757Z,22.83
2022-09-04T20:44:13.666Z,28.48
2022-09-04T20:52:45.514Z,30.55
2022-09-04T20:52:55.271Z,22.85
2022-09-04T20:53:12.250Z,24.05
2022-09-04T20:56:38.172Z,27.55
2022-09-04T21:03:10.003Z,22.75
2022-09-04T21:03:17.496Z,19.63
2022-09-04T21:05:50.528Z,21.75
2022-09-04T21:08:35.566Z,18.90
2022-09-04T21:11:12.653Z,19.40
2022-09-04T21:13:56.391Z,15.20
2022-09-04T21:16:44.478Z,18.13
2022-09-04T21:19:28.582Z,17.35
2022-09-04T21:22:21.125Z,16.83
2022-09-04T21:25:12.205Z,17.88
2022-09-04T21:28:05.075Z,19.23
2022-09-04T21:30:42.626Z,20.80
2022-09-04T21:33:27.064Z,22.38
2022-09-04T21:36:26.731Z,24.35
2022-09-04T21:39:23.230Z,33.58
2022-09-04T21:42:01.631Z,22.13
2022-09-04T21:44:52.227Z,22.02
2022-09-04T21:47:44.879Z,21.90
2022-09-04T21:50:30.549Z,22.90
2022-09-04T21:53:19.309Z,23.63
2022-09-04T22:00:08.050Z,21.77
2022-09-04T22:02:36.340Z,20.95
2022-09-04T22:02:59.282Z,19.73
2022-09-04T22:05:35.617Z,17.02
2022-09-04T22:13:33.142Z,16.27
2022-09-04T22:13:39.419Z,13.48
2022-09-04T22:14:39.526Z,14.70
2022-09-04T22:17:15.554Z,14.05
2022-09-04T22:20:08.193Z,9.95
2022-09-04T22:23:08.738Z,11.10
2022-09-04T22:26:09.202Z,9.23
2022-09-04T22:29:10.566Z,8.35
2022-09-04T22:31:46.187Z,10.57
2022-09-04T22:34:42.302Z,9.43
2022-09-04T22:37:27.927Z,10.15
2022-09-04T22:40:16.206Z,11.07
2022-09-04T22:42:49.675Z,8.07
2022-09-04T22:45:34.936Z,10.93
2022-09-04T22:48:11.409Z,9.27
2022-09-04T22:50:50.975Z,17.90
2022-09-04T22:54:05.938Z,13.95
2022-09-04T22:56:51.248Z,8.63
2022-09-04T22:59:35.986Z,9.82
2022-09-04T23:02:13.511Z,11.27
2022-09-04T23:05:02.050Z,10.07
2022-09-04T23:12:13.546Z,10.60
2022-09-04T23:13:58.087Z,8.35
2022-09-04T23:14:07.973Z,7.82
2022-09-04T23:16:58.118Z,11.57
2022-09-04T23:22:27.709Z,9.38
2022-09-04T23:26:44.824Z,7.63
2022-09-04T23:26:45.501Z,8.40
2022-09-04T23:28:48.290Z,5.40
2022-09-04T23:31:37.775Z,6.97
2022-09-04T23:34:30.186Z,6.70
2022-09-04T23:36:56.961Z,8.70
2022-09-04T23:39:51.519Z,9.40
2022-09-04T23:42:39.072Z,6.00
2022-09-04T23:45:24.113Z,9.60
2022-09-04T23:48:05.804Z,8.02
2022-09-04T23:51:04.607Z,6.80
2022-09-04T23:53:42.934Z,5.80
2022-09-04T23:56:26.050Z,7.90
2022-09-04T23:59:35.811Z,7.80
